createdAt,value
2018-04-11T00:00:30.065Z,0
2018-04-11T00:01:10.650Z,0
2018-04-11T00:01:51.148Z,0
2018-04-11T00:02:31.677Z,0
2018-04-11T00:03:12.129Z,0
2018-04-11T00:03:52.643Z,0
2018-04-11T00:04:33.160Z,0
2018-04-11T00:05:13.676Z,0
2018-04-11T00:05:54.202Z,0
2018-04-11T00:06:34.720Z,0
2018-04-11T00:07:15.502Z,0
2018-04-11T00:07:56.013Z,0
2018-04-11T00:08:38.035Z,0
2018-04-11T00:09:18.526Z,0
2018-04-11T00:09:59.055Z,0
2018-04-11T00:10:39.554Z,0
2018-04-11T00:11:20.070Z,0
2018-04-11T00:12:00.601Z,0
2018-04-11T00:12:41.081Z,0
2018-04-11T00:13:21.584Z,0
2018-04-11T00:14:02.056Z,0
2018-04-11T00:14:42.558Z,0
2018-04-11T00:15:23.067Z,0
2018-04-11T00:16:03.575Z,0
2018-04-11T00:16:44.070Z,0
2018-04-11T00:17:24.563Z,0
2018-04-11T00:18:05.040Z,0
2018-04-11T00:18:45.537Z,0
2018-04-11T00:19:25.999Z,0
2018-04-11T00:20:06.514Z,0
2018-04-11T00:20:47.015Z,0
2018-04-11T00:21:27.530Z,0
2018-04-11T00:22:07.993Z,0
2018-04-11T00:22:48.516Z,0
2018-04-11T00:23:29.000Z,0
2018-04-11T00:24:09.518Z,0
2018-04-11T00:24:49.995Z,0
2018-04-11T00:25:30.476Z,0
2018-04-11T00:26:10.975Z,0
2018-04-11T00:26:51.473Z,0
2018-04-11T00:27:31.952Z,0
2018-04-11T00:28:12.487Z,0
2018-04-11T00:28:53.001Z,0
2018-04-11T00:29:33.477Z,0
2018-04-11T00:30:14.011Z,0
2018-04-11T00:30:54.538Z,0
2018-04-11T00:31:35.062Z,0
2018-04-11T00:32:15.555Z,0
2018-04-11T00:32:56.067Z,0
2018-04-11T00:33:36.588Z,0
2018-04-11T00:34:17.093Z,0
2018-04-11T00:34:57.612Z,0
2018-04-11T00:35:38.107Z,0
2018-04-11T00:36:18.608Z,0
2018-04-11T00:36:59.134Z,0
2018-04-11T00:37:39.571Z,0
2018-04-11T00:38:20.069Z,0
2018-04-11T00:39:00.568Z,0
2018-04-11T00:39:41.073Z,0
2018-04-11T00:40:21.544Z,0
2018-04-11T00:41:02.065Z,0
2018-04-11T00:41:42.576Z,0
2018-04-11T00:42:23.057Z,0
2018-04-11T00:43:03.544Z,0
2018-04-11T00:43:44.038Z,0
2018-04-11T00:44:24.563Z,0
2018-04-11T00:45:05.065Z,0
2018-04-11T00:45:45.560Z,0
2018-04-11T00:46:26.119Z,0
2018-04-11T00:47:06.596Z,0
2018-04-11T00:47:47.083Z,0
2018-04-11T00:48:27.581Z,0
2018-04-11T00:49:08.098Z,0
2018-04-11T00:49:48.617Z,0
2018-04-11T00:50:29.103Z,0
2018-04-11T00:51:09.637Z,0
2018-04-11T00:51:50.117Z,0
2018-04-11T00:52:30.641Z,0
2018-04-11T00:53:11.165Z,0
2018-04-11T00:53:51.701Z,0
2018-04-11T00:54:32.199Z,0
2018-04-11T00:55:12.679Z,0
2018-04-11T00:55:53.215Z,0
2018-04-11T00:56:33.733Z,0
2018-04-11T00:57:14.233Z,0
2018-04-11T00:57:54.725Z,0
2018-04-11T00:58:35.223Z,0
2018-04-11T00:59:15.764Z,0
2018-04-11T00:59:56.237Z,0
2018-04-11T01:00:36.728Z,0
2018-04-11T01:01:17.228Z,0
2018-04-11T01:01:57.732Z,0
2018-04-11T01:02:38.211Z,0
2018-04-11T01:03:18.732Z,0
2018-04-11T01:03:59.220Z,0
2018-04-11T01:04:39.722Z,0
2018-04-11T01:05:20.234Z,0
2018-04-11T01:06:00.769Z,0
2018-04-11T01:06:41.228Z,0
2018-04-11T01:07:21.739Z,0
2018-04-11T01:08:02.254Z,0
2018-04-11T01:08:42.706Z,0
2018-04-11T01:09:23.217Z,0
2018-04-11T01:10:03.769Z,0
2018-04-11T01:10:44.278Z,0
2018-04-11T01:11:24.792Z,0
2018-04-11T01:12:05.275Z,0
2018-04-11T01:12:45.758Z,0
2018-04-11T01:13:26.283Z,0
2018-04-11T01:14:06.837Z,0
2018-04-11T01:14:47.279Z,0
2018-04-11T01:15:27.729Z,0
2018-04-11T01:16:08.211Z,0
2018-04-11T01:16:48.793Z,0
2018-04-11T01:17:29.242Z,0
2018-04-11T01:18:09.741Z,0
2018-04-11T01:18:50.236Z,0
2018-04-11T01:19:30.729Z,0
2018-04-11T01:20:11.225Z,0
2018-04-11T01:20:51.724Z,0
2018-04-11T01:21:32.262Z,0
2018-04-11T01:22:12.749Z,0
2018-04-11T01:22:53.231Z,0
2018-04-11T01:23:33.763Z,0
2018-04-11T01:24:14.273Z,0
2018-04-11T01:24:54.749Z,0
2018-04-11T01:25:35.231Z,0
2018-04-11T01:26:15.695Z,0
2018-04-11T01:26:56.175Z,0
2018-04-11T01:27:36.657Z,0
2018-04-11T01:28:17.169Z,0
2018-04-11T01:28:57.684Z,0
2018-04-11T01:29:38.199Z,0
2018-04-11T01:30:18.723Z,0
2018-04-11T01:30:59.251Z,0
2018-04-11T01:31:39.770Z,0
2018-04-11T01:32:20.263Z,0
2018-04-11T01:33:00.770Z,0
2018-04-11T01:33:41.275Z,0
2018-04-11T01:34:21.797Z,0
2018-04-11T01:35:02.312Z,0
2018-04-11T01:35:42.795Z,0
2018-04-11T01:36:23.312Z,0
2018-04-11T01:37:03.823Z,0
2018-04-11T01:37:44.296Z,0
2018-04-11T01:38:24.791Z,0
2018-04-11T01:39:05.275Z,0
2018-04-11T01:39:45.750Z,0
2018-04-11T01:40:26.248Z,0
2018-04-11T01:41:06.805Z,0
2018-04-11T01:41:47.319Z,0
2018-04-11T01:42:27.828Z,0
2018-04-11T01:43:08.340Z,0
2018-04-11T01:43:48.917Z,0
2018-04-11T01:44:29.386Z,0
2018-04-11T01:45:09.893Z,0
2018-04-11T01:45:50.396Z,0
2018-04-11T01:46:30.916Z,0
2018-04-11T01:47:11.445Z,0
2018-04-11T01:47:51.977Z,0
2018-04-11T01:48:32.487Z,0
2018-04-11T01:49:13.000Z,0
2018-04-11T01:49:53.512Z,0
2018-04-11T01:50:34.043Z,0
2018-04-11T01:51:14.548Z,0
2018-04-11T01:51:55.065Z,0
2018-04-11T01:52:35.586Z,0
2018-04-11T01:53:16.113Z,0
2018-04-11T01:53:56.640Z,0
2018-04-11T01:54:37.126Z,0
2018-04-11T01:55:17.651Z,0
2018-04-11T01:55:58.159Z,0
2018-04-11T01:56:38.677Z,0
2018-04-11T01:57:19.191Z,0
2018-04-11T01:57:59.777Z,0
2018-04-11T01:58:40.267Z,0
2018-04-11T01:59:20.786Z,0
2018-04-11T02:00:01.298Z,0
2018-04-11T02:00:41.853Z,0
2018-04-11T02:02:41.796Z,0
2018-04-11T02:03:22.307Z,0
2018-04-11T02:04:02.817Z,0
2018-04-11T02:04:43.317Z,0
2018-04-11T02:05:23.804Z,0
2018-04-11T02:06:04.322Z,0
2018-04-11T02:06:44.854Z,0
2018-04-11T02:07:25.357Z,0
2018-04-11T02:08:05.826Z,0
2018-04-11T02:08:46.328Z,0
2018-04-11T02:09:26.854Z,0
2018-04-11T02:10:07.370Z,0
2018-04-11T02:10:47.889Z,0
2018-04-11T02:11:28.403Z,0
2018-04-11T02:12:08.907Z,0
2018-04-11T02:12:49.410Z,0
2018-04-11T02:13:29.912Z,0
2018-04-11T02:14:10.405Z,0
2018-04-11T02:14:50.960Z,0
2018-04-11T02:15:31.473Z,0
2018-04-11T02:16:11.924Z,0
2018-04-11T02:16:52.423Z,0
2018-04-11T02:17:32.906Z,0
2018-04-11T02:18:13.394Z,0
2018-04-11T02:18:53.893Z,0
2018-04-11T02:19:34.407Z,0
2018-04-11T02:20:15.101Z,0
2018-04-11T02:20:55.603Z,0
2018-04-11T02:21:36.090Z,0
2018-04-11T02:22:16.588Z,0
2018-04-11T02:22:57.091Z,0
2018-04-11T02:23:37.596Z,0
2018-04-11T02:24:18.102Z,0
2018-04-11T02:24:58.609Z,0
2018-04-11T02:25:39.117Z,0
2018-04-11T02:26:19.631Z,0
2018-04-11T02:27:00.120Z,0
2018-04-11T02:27:40.628Z,0
2018-04-11T02:28:21.121Z,0
2018-04-11T02:29:01.643Z,0
2018-04-11T02:29:42.152Z,0
2018-04-11T02:30:22.664Z,0
2018-04-11T02:31:03.182Z,0
2018-04-11T02:31:43.690Z,0
2018-04-11T02:32:24.268Z,0
2018-04-11T02:33:04.784Z,0
2018-04-11T02:33:45.314Z,0
2018-04-11T02:34:25.779Z,0
2018-04-11T02:35:06.289Z,0
2018-04-11T02:35:46.782Z,0
2018-04-11T02:36:27.289Z,0
2018-04-11T02:37:07.797Z,0
2018-04-11T02:37:48.316Z,0
2018-04-11T02:38:28.807Z,0
2018-04-11T02:39:09.319Z,0
2018-04-11T02:39:49.804Z,0
2018-04-11T02:40:30.313Z,0
2018-04-11T02:41:10.822Z,0
2018-04-11T02:41:51.324Z,0
2018-04-11T02:42:31.831Z,0
2018-04-11T02:43:12.330Z,0
2018-04-11T02:43:52.833Z,0
2018-04-11T02:44:33.346Z,0
2018-04-11T02:45:13.864Z,0
2018-04-11T02:45:54.381Z,0
2018-04-11T02:46:34.886Z,0
2018-04-11T02:47:15.390Z,0
2018-04-11T02:47:55.900Z,0
2018-04-11T02:48:36.396Z,0
2018-04-11T02:49:16.928Z,0
2018-04-11T02:49:57.399Z,0
2018-04-11T02:50:37.912Z,0
2018-04-11T02:51:18.447Z,0
2018-04-11T02:51:58.933Z,0
2018-04-11T02:52:39.476Z,0
2018-04-11T02:53:19.984Z,0
2018-04-11T02:54:00.492Z,0
2018-04-11T02:54:41.012Z,0
2018-04-11T02:55:21.507Z,0
2018-04-11T02:56:01.981Z,0
2018-04-11T02:56:42.489Z,0
2018-04-11T02:57:23.003Z,0
2018-04-11T02:58:03.503Z,0
2018-04-11T02:58:44.019Z,0
2018-04-11T02:59:24.527Z,0
2018-04-11T03:00:05.051Z,0
2018-04-11T03:00:45.553Z,0
2018-04-11T03:01:26.070Z,0
2018-04-11T03:02:06.592Z,0
2018-04-11T03:02:47.105Z,0
2018-04-11T03:03:27.605Z,0
2018-04-11T03:04:08.160Z,0
2018-04-11T03:04:48.694Z,0
2018-04-11T03:05:29.222Z,0
2018-04-11T03:06:09.736Z,0
2018-04-11T03:06:50.252Z,0
2018-04-11T03:07:30.848Z,0
2018-04-11T03:08:11.358Z,0
2018-04-11T03:08:51.962Z,0
2018-04-11T03:09:32.472Z,0
2018-04-11T03:10:12.985Z,0
2018-04-11T03:10:53.484Z,0
2018-04-11T03:11:34.003Z,0
2018-04-11T03:12:14.517Z,0
2018-04-11T03:12:55.016Z,0
2018-04-11T03:13:35.529Z,0
2018-04-11T03:14:16.050Z,0
2018-04-11T03:14:56.563Z,0
2018-04-11T03:15:37.074Z,0
2018-04-11T03:16:17.605Z,0
2018-04-11T03:16:58.127Z,0
2018-04-11T03:17:38.643Z,0
2018-04-11T03:18:19.156Z,0
2018-04-11T03:18:59.674Z,0
2018-04-11T03:19:40.192Z,0
2018-04-11T03:20:20.719Z,0
2018-04-11T03:21:01.214Z,0
2018-04-11T03:21:41.743Z,0
2018-04-11T03:22:22.242Z,0
2018-04-11T03:23:02.757Z,0
2018-04-11T03:23:43.281Z,0
2018-04-11T03:24:23.793Z,0
2018-04-11T03:25:04.307Z,0
2018-04-11T03:25:44.804Z,0
2018-04-11T03:26:25.329Z,0
2018-04-11T03:27:05.846Z,0
2018-04-11T03:27:46.379Z,0
2018-04-11T03:28:26.888Z,0
2018-04-11T03:29:07.412Z,0
2018-04-11T03:29:47.919Z,0
2018-04-11T03:30:28.430Z,0
2018-04-11T03:31:08.951Z,0
2018-04-11T03:31:49.459Z,0
2018-04-11T03:32:29.967Z,0
2018-04-11T03:33:10.487Z,0
2018-04-11T03:33:50.990Z,0
2018-04-11T03:34:31.496Z,0
2018-04-11T03:35:12.037Z,0
2018-04-11T03:35:52.546Z,0
2018-04-11T03:36:33.078Z,0
2018-04-11T03:37:13.600Z,0
2018-04-11T03:37:54.115Z,0
2018-04-11T03:38:34.623Z,0
2018-04-11T03:39:15.154Z,0
2018-04-11T03:39:55.653Z,0
2018-04-11T03:40:36.164Z,0
2018-04-11T03:41:16.685Z,0
2018-04-11T03:41:57.202Z,0
2018-04-11T03:42:37.717Z,0
2018-04-11T03:43:18.239Z,0
2018-04-11T03:43:58.739Z,0
2018-04-11T03:44:39.269Z,0
2018-04-11T03:45:19.772Z,0
2018-04-11T03:46:00.462Z,0
2018-04-11T03:46:40.949Z,0
2018-04-11T03:47:21.422Z,0
2018-04-11T03:48:01.929Z,0
2018-04-11T03:48:42.434Z,0
2018-04-11T03:49:22.946Z,0
2018-04-11T03:50:03.461Z,0
2018-04-11T03:50:43.975Z,0
2018-04-11T03:51:24.485Z,0
2018-04-11T03:52:05.002Z,0
2018-04-11T03:52:45.498Z,0
2018-04-11T03:53:26.100Z,0
2018-04-11T03:54:06.640Z,0
2018-04-11T03:54:47.158Z,0
2018-04-11T03:55:27.665Z,0
2018-04-11T03:56:08.188Z,0
2018-04-11T03:56:48.701Z,0
2018-04-11T03:57:29.228Z,0
2018-04-11T03:58:09.744Z,0
2018-04-11T03:58:50.262Z,0
2018-04-11T03:59:30.760Z,0
2018-04-11T04:00:11.320Z,0
2018-04-11T04:00:51.787Z,0
2018-04-11T04:01:32.307Z,0
2018-04-11T04:02:12.824Z,0
2018-04-11T04:02:53.335Z,0
2018-04-11T04:03:33.845Z,0
2018-04-11T04:04:14.323Z,0
2018-04-11T04:04:54.789Z,0
2018-04-11T04:05:35.275Z,0
2018-04-11T04:06:15.854Z,0
2018-04-11T04:06:56.384Z,0
2018-04-11T04:07:36.940Z,0
2018-04-11T04:08:17.382Z,0
2018-04-11T04:08:57.887Z,0
2018-04-11T04:09:38.377Z,0
2018-04-11T04:10:18.882Z,0
2018-04-11T04:10:59.375Z,0
2018-04-11T04:11:39.872Z,0
2018-04-11T04:12:20.391Z,4
2018-04-11T04:13:00.877Z,4
2018-04-11T04:13:41.411Z,4
2018-04-11T04:14:21.890Z,0
2018-04-11T04:15:02.403Z,0
2018-04-11T04:15:42.924Z,4
2018-04-11T04:16:23.432Z,4
2018-04-11T04:17:04.003Z,4
2018-04-11T04:17:44.503Z,4
2018-04-11T04:18:25.055Z,8
2018-04-11T04:19:05.572Z,4
2018-04-11T04:19:46.120Z,8
2018-04-11T04:20:26.573Z,8
2018-04-11T04:21:07.085Z,8
2018-04-11T04:21:47.572Z,8
2018-04-11T04:22:28.114Z,8
2018-04-11T04:23:08.577Z,12
2018-04-11T04:23:49.084Z,12
2018-04-11T04:24:29.616Z,16
2018-04-11T04:25:10.074Z,20
2018-04-11T04:25:50.588Z,20
2018-04-11T04:28:05.748Z,28
2018-04-11T04:28:46.260Z,28
2018-04-11T04:29:26.780Z,36
2018-04-11T04:30:07.284Z,40
2018-04-11T04:30:47.775Z,44
2018-04-11T04:31:29.514Z,48
2018-04-11T04:32:10.004Z,48
2018-04-11T04:32:50.526Z,56
2018-04-11T04:33:31.045Z,56
2018-04-11T04:34:11.550Z,64
2018-04-11T04:34:52.155Z,72
2018-04-11T04:35:32.746Z,76
2018-04-11T04:36:13.233Z,84
2018-04-11T04:36:53.725Z,92
2018-04-11T04:37:34.220Z,96
2018-04-11T04:38:14.725Z,104
2018-04-11T04:38:55.227Z,108
2018-04-11T04:39:35.785Z,120
2018-04-11T04:40:16.249Z,128
2018-04-11T04:40:56.745Z,136
2018-04-11T04:41:37.242Z,144
2018-04-11T04:42:17.750Z,152
2018-04-11T04:42:58.285Z,164
2018-04-11T04:43:38.778Z,176
2018-04-11T04:44:19.296Z,188
2018-04-11T04:44:59.815Z,200
2018-04-11T04:45:40.305Z,212
2018-04-11T04:46:20.776Z,228
2018-04-11T04:47:01.274Z,240
2018-04-11T04:47:41.779Z,256
2018-04-11T04:48:22.306Z,268
2018-04-11T04:49:02.838Z,288
2018-04-11T04:49:43.294Z,304
2018-04-11T04:50:23.795Z,320
2018-04-11T04:51:04.312Z,340
2018-04-11T04:51:44.838Z,356
2018-04-11T04:52:25.411Z,376
2018-04-11T04:53:05.889Z,396
2018-04-11T04:53:46.384Z,416
2018-04-11T04:54:26.894Z,440
2018-04-11T04:55:07.396Z,460
2018-04-11T04:55:47.895Z,480
2018-04-11T04:56:28.394Z,508
2018-04-11T04:57:08.888Z,532
2018-04-11T04:57:49.418Z,556
2018-04-11T04:58:29.924Z,584
2018-04-11T04:59:10.477Z,612
2018-04-11T04:59:50.965Z,640
2018-04-11T05:02:04.305Z,736
2018-04-11T05:02:44.816Z,768
2018-04-11T05:03:25.324Z,796
2018-04-11T05:04:05.879Z,828
2018-04-11T05:04:46.330Z,856
2018-04-11T05:05:26.859Z,884
2018-04-11T05:06:07.354Z,916
2018-04-11T05:06:47.864Z,948
2018-04-11T05:07:28.379Z,980
2018-04-11T05:08:08.897Z,1012
2018-04-11T05:08:49.419Z,1044
2018-04-11T05:09:29.955Z,1072
2018-04-11T05:10:10.461Z,1104
2018-04-11T05:10:50.992Z,1132
2018-04-11T05:11:31.484Z,1160
2018-04-11T05:12:11.997Z,1188
2018-04-11T05:12:52.509Z,1216
2018-04-11T05:13:33.023Z,1244
2018-04-11T05:14:13.538Z,1276
2018-04-11T05:14:54.055Z,1304
2018-04-11T05:15:34.606Z,1332
2018-04-11T05:16:15.129Z,1364
2018-04-11T05:16:55.662Z,1392
2018-04-11T05:17:36.166Z,1428
2018-04-11T05:18:16.764Z,1464
2018-04-11T05:18:57.289Z,1496
2018-04-11T05:19:37.801Z,1524
2018-04-11T05:20:18.319Z,1548
2018-04-11T05:20:58.839Z,1568
2018-04-11T05:21:39.377Z,1584
2018-04-11T05:22:20.608Z,1600
2018-04-11T05:23:01.334Z,1604
2018-04-11T05:23:41.778Z,1616
2018-04-11T05:24:22.290Z,1628
2018-04-11T05:25:02.794Z,1652
2018-04-11T05:25:43.380Z,1676
2018-04-11T05:28:17.121Z,1776
2018-04-11T05:28:57.644Z,1812
2018-04-11T05:29:38.159Z,1852
2018-04-11T05:30:18.691Z,1912
2018-04-11T05:30:59.206Z,1972
2018-04-11T05:31:39.721Z,2020
2018-04-11T05:32:20.327Z,2072
2018-04-11T05:33:00.832Z,2112
2018-04-11T05:33:41.352Z,2128
2018-04-11T05:34:21.871Z,2124
2018-04-11T05:35:02.385Z,2132
2018-04-11T05:35:42.900Z,2148
2018-04-11T05:36:23.409Z,2188
2018-04-11T05:37:03.982Z,2232
2018-04-11T05:37:44.478Z,2260
2018-04-11T05:38:25.020Z,2272
2018-04-11T05:39:05.556Z,2280
2018-04-11T05:39:46.037Z,2288
2018-04-11T05:40:26.572Z,2308
2018-04-11T05:41:07.052Z,2344
2018-04-11T05:41:47.573Z,2376
2018-04-11T05:42:28.103Z,2400
2018-04-11T05:43:08.610Z,2420
2018-04-11T05:43:49.120Z,2448
2018-04-11T05:44:29.641Z,2472
2018-04-11T05:45:10.158Z,2508
2018-04-11T05:45:50.665Z,2544
2018-04-11T05:46:31.198Z,2564
2018-04-11T05:47:11.707Z,2580
2018-04-11T05:47:52.227Z,2588
2018-04-11T05:48:32.762Z,2600
2018-04-11T05:49:13.342Z,2608
2018-04-11T05:49:53.829Z,2620
2018-04-11T05:50:34.346Z,2632
2018-04-11T05:51:14.870Z,2648
2018-04-11T05:51:55.384Z,2672
2018-04-11T05:52:35.900Z,2696
2018-04-11T05:53:16.416Z,2712
2018-04-11T05:53:56.975Z,2728
2018-04-11T05:54:37.494Z,2744
2018-04-11T05:55:18.016Z,2760
2018-04-11T05:55:58.539Z,2776
2018-04-11T05:56:39.047Z,2792
2018-04-11T05:57:19.584Z,2816
2018-04-11T05:58:00.100Z,2852
2018-04-11T05:58:40.609Z,2892
2018-04-11T05:59:21.157Z,2900
2018-04-11T06:00:01.782Z,2936
2018-04-11T06:00:42.306Z,2952
2018-04-11T06:01:22.819Z,2980
2018-04-11T06:02:03.337Z,3000
2018-04-11T06:02:43.971Z,3008
2018-04-11T06:03:24.474Z,2996
2018-04-11T06:04:05.132Z,2996
2018-04-11T06:04:45.627Z,3000
2018-04-11T06:05:26.152Z,2988
2018-04-11T06:06:06.691Z,2984
2018-04-11T06:06:47.210Z,2980
2018-04-11T06:07:27.777Z,2964
2018-04-11T06:08:08.279Z,2972
2018-04-11T06:08:48.788Z,2980
2018-04-11T06:09:29.393Z,2996
2018-04-11T06:10:09.800Z,3016
2018-04-11T06:10:50.322Z,3048
2018-04-11T06:11:30.948Z,3088
2018-04-11T06:12:11.469Z,3128
2018-04-11T06:12:51.984Z,3156
2018-04-11T06:13:32.514Z,3172
2018-04-11T06:14:13.044Z,3180
2018-04-11T06:14:53.556Z,3188
2018-04-11T06:15:34.069Z,3196
2018-04-11T06:16:14.592Z,3224
2018-04-11T06:16:55.123Z,3240
2018-04-11T06:17:35.630Z,3252
2018-04-11T06:18:16.141Z,3260
2018-04-11T06:18:56.681Z,3268
2018-04-11T06:19:37.193Z,3264
2018-04-11T06:20:17.713Z,3280
2018-04-11T06:20:58.326Z,3304
2018-04-11T06:21:38.844Z,3344
2018-04-11T06:22:19.598Z,3388
2018-04-11T06:23:00.184Z,3420
2018-04-11T06:23:40.737Z,3436
2018-04-11T06:24:21.404Z,3440
2018-04-11T06:25:01.925Z,3424
2018-04-11T06:25:42.448Z,3404
2018-04-11T06:26:23.921Z,3388
2018-04-11T06:27:04.544Z,3384
2018-04-11T06:27:45.061Z,3388
2018-04-11T06:28:25.597Z,3416
2018-04-11T06:29:07.180Z,3448
2018-04-11T06:29:48.083Z,3480
2018-04-11T06:30:28.597Z,3508
2018-04-11T06:31:09.159Z,3536
2018-04-11T06:31:49.681Z,3564
2018-04-11T06:32:30.182Z,3584
2018-04-11T06:33:10.774Z,3592
2018-04-11T06:33:51.285Z,3580
2018-04-11T06:34:31.798Z,3572
2018-04-11T06:35:12.324Z,3568
2018-04-11T06:35:52.840Z,3572
2018-04-11T06:36:33.465Z,3580
2018-04-11T06:37:13.980Z,3584
2018-04-11T06:37:54.473Z,3592
2018-04-11T06:38:34.973Z,3592
2018-04-11T06:39:16.332Z,3592
2018-04-11T06:39:57.382Z,3588
2018-04-11T06:40:37.902Z,3592
2018-04-11T06:41:18.411Z,3584
2018-04-11T06:41:59.043Z,3568
2018-04-11T06:42:39.545Z,3524
2018-04-11T06:43:20.115Z,3484
2018-04-11T06:44:00.786Z,3444
2018-04-11T06:44:41.285Z,3412
2018-04-11T06:45:21.824Z,3388
2018-04-11T06:46:02.474Z,3348
2018-04-11T06:46:43.000Z,3312
2018-04-11T06:47:23.597Z,3296
2018-04-11T06:48:04.029Z,3296
2018-04-11T06:48:44.569Z,3304
2018-04-11T06:49:25.083Z,3304
2018-04-11T06:50:05.592Z,3296
2018-04-11T06:50:46.094Z,3280
2018-04-11T06:51:26.632Z,3264
2018-04-11T06:52:07.601Z,3256
2018-04-11T06:52:48.253Z,3260
2018-04-11T06:53:28.760Z,3264
2018-04-11T06:54:09.280Z,3280
2018-04-11T06:54:49.773Z,3284
2018-04-11T06:55:30.316Z,3288
2018-04-11T06:56:10.819Z,3308
2018-04-11T06:56:51.409Z,3344
2018-04-11T06:57:35.334Z,3376
2018-04-11T06:58:16.025Z,3396
2018-04-11T06:58:56.508Z,3424
2018-04-11T06:59:37.011Z,3500
2018-04-11T07:00:17.532Z,3664
2018-04-11T07:00:58.045Z,3912
2018-04-11T07:01:38.646Z,4216
2018-04-11T07:02:19.158Z,4496
2018-04-11T07:02:59.676Z,4740
2018-04-11T07:03:40.211Z,4936
2018-04-11T07:04:20.727Z,5060
2018-04-11T07:05:01.366Z,5156
2018-04-11T07:05:41.937Z,5196
2018-04-11T07:06:22.507Z,5192
2018-04-11T07:07:03.009Z,5168
2018-04-11T07:07:43.527Z,5132
2018-04-11T07:08:24.040Z,5104
2018-04-11T07:09:04.641Z,5112
2018-04-11T07:09:45.150Z,5144
2018-04-11T07:10:25.677Z,5184
2018-04-11T07:11:06.186Z,5216
2018-04-11T07:11:46.715Z,5236
2018-04-11T07:12:27.260Z,5252
2018-04-11T07:13:07.776Z,5272
2018-04-11T07:13:48.322Z,5288
2018-04-11T07:14:28.826Z,5304
2018-04-11T07:15:09.341Z,5312
2018-04-11T07:15:50.595Z,5316
2018-04-11T07:16:31.103Z,5320
2018-04-11T07:17:11.647Z,5324
2018-04-11T07:17:52.185Z,5324
2018-04-11T07:18:32.723Z,5308
2018-04-11T07:19:13.247Z,5304
2018-04-11T07:19:53.755Z,5304
2018-04-11T07:20:34.266Z,5292
2018-04-11T07:21:14.792Z,5272
2018-04-11T07:21:55.310Z,5256
2018-04-11T07:22:35.823Z,5224
2018-04-11T07:23:16.378Z,5200
2018-04-11T07:23:56.905Z,5172
2018-04-11T07:24:37.414Z,5160
2018-04-11T07:25:17.924Z,5140
2018-04-11T07:25:58.512Z,5112
2018-04-11T07:26:39.015Z,5080
2018-04-11T07:27:19.532Z,5052
2018-04-11T07:28:00.074Z,5024
2018-04-11T07:28:40.652Z,4992
2018-04-11T07:29:21.139Z,4960
2018-04-11T07:30:01.672Z,4932
2018-04-11T07:30:42.191Z,4908
2018-04-11T07:31:22.696Z,4872
2018-04-11T07:32:03.214Z,4844
2018-04-11T07:32:43.754Z,4812
2018-04-11T07:33:24.311Z,4772
2018-04-11T07:34:04.826Z,4740
2018-04-11T07:34:45.447Z,4720
2018-04-11T07:35:26.000Z,4692
2018-04-11T07:36:07.498Z,4652
2018-04-11T07:36:47.885Z,4620
2018-04-11T07:37:28.415Z,4596
2018-04-11T07:38:08.951Z,4580
2018-04-11T07:38:49.464Z,4548
2018-04-11T07:39:30.213Z,4520
2018-04-11T07:40:10.710Z,4492
2018-04-11T07:40:51.210Z,4464
2018-04-11T07:41:32.118Z,4440
2018-04-11T07:42:12.642Z,4412
2018-04-11T07:42:53.443Z,4388
2018-04-11T07:43:34.030Z,4356
2018-04-11T07:44:14.500Z,4336
2018-04-11T07:44:55.075Z,4308
2018-04-11T07:45:35.627Z,4288
2018-04-11T07:46:16.125Z,4264
2018-04-11T07:46:56.630Z,4236
2018-04-11T07:47:37.102Z,4212
2018-04-11T07:48:17.555Z,4184
2018-04-11T07:48:58.111Z,4156
2018-04-11T07:49:38.564Z,4128
2018-04-11T07:50:19.095Z,4092
2018-04-11T07:50:59.574Z,4032
2018-04-11T07:51:40.291Z,3924
2018-04-11T07:52:20.789Z,3784
2018-04-11T07:53:01.503Z,3644
2018-04-11T07:53:41.875Z,3532
2018-04-11T07:54:22.300Z,3468
2018-04-11T07:55:02.830Z,3436
2018-04-11T07:55:43.307Z,3420
2018-04-11T07:56:23.984Z,3412
2018-04-11T07:57:04.590Z,3396
2018-04-11T07:57:45.054Z,3384
2018-04-11T07:58:25.549Z,3368
2018-04-11T07:59:06.058Z,3352
2018-04-11T07:59:46.528Z,3332
2018-04-11T08:00:27.047Z,3308
2018-04-11T08:01:07.521Z,3288
2018-04-11T08:01:48.251Z,3264
2018-04-11T08:02:28.781Z,3240
2018-04-11T08:03:09.303Z,3220
2018-04-11T08:03:49.807Z,3192
2018-04-11T08:04:30.290Z,3168
2018-04-11T08:05:10.802Z,3144
2018-04-11T08:05:51.986Z,3120
2018-04-11T08:06:32.451Z,3096
2018-04-11T08:07:12.969Z,3076
2018-04-11T08:07:53.436Z,3052
2018-04-11T08:08:33.896Z,3024
2018-04-11T08:09:14.361Z,2996
2018-04-11T08:09:55.009Z,2968
2018-04-11T08:10:35.398Z,2944
2018-04-11T08:11:15.898Z,2924
2018-04-11T08:11:56.403Z,2904
2018-04-11T08:12:36.914Z,2892
2018-04-11T08:13:17.364Z,2880
2018-04-11T08:13:58.172Z,2876
2018-04-11T08:14:38.651Z,2872
2018-04-11T08:15:19.128Z,2864
2018-04-11T08:15:59.620Z,2860
2018-04-11T08:16:40.095Z,2856
2018-04-11T08:17:20.608Z,2848
2018-04-11T08:18:01.163Z,2844
2018-04-11T08:18:41.599Z,2836
2018-04-11T08:19:22.064Z,2832
2018-04-11T08:20:02.582Z,2828
2018-04-11T08:20:43.033Z,2828
2018-04-11T08:21:23.545Z,2824
2018-04-11T08:22:04.024Z,2824
2018-04-11T08:22:44.505Z,2820
2018-04-11T08:23:24.991Z,2816
2018-04-11T08:24:05.499Z,2816
2018-04-11T08:24:45.969Z,2816
2018-04-11T08:25:26.485Z,2808
2018-04-11T08:26:07.001Z,2804
2018-04-11T08:26:47.470Z,2800
2018-04-11T08:27:27.974Z,2796
2018-04-11T08:28:08.452Z,2796
2018-04-11T08:28:48.907Z,2788
2018-04-11T08:29:29.439Z,2788
2018-04-11T08:30:09.928Z,2784
2018-04-11T08:30:50.547Z,2780
2018-04-11T08:31:31.028Z,2776
2018-04-11T08:32:11.497Z,2772
2018-04-11T08:32:52.038Z,2768
2018-04-11T08:33:32.493Z,2764
2018-04-11T08:34:13.028Z,2764
2018-04-11T08:34:53.483Z,2760
2018-04-11T08:35:33.978Z,2760
2018-04-11T08:36:14.476Z,2756
2018-04-11T08:36:55.016Z,2752
2018-04-11T08:37:35.468Z,2752
2018-04-11T08:38:15.920Z,2752
2018-04-11T08:38:56.437Z,2748
2018-04-11T08:39:36.950Z,2752
2018-04-11T08:40:17.444Z,2752
2018-04-11T08:40:57.924Z,2752
2018-04-11T08:41:38.450Z,2748
2018-04-11T08:42:18.938Z,2748
2018-04-11T08:42:59.463Z,2752
2018-04-11T08:43:39.913Z,2748
2018-04-11T08:44:20.488Z,2752
2018-04-11T08:45:00.978Z,2752
2018-04-11T08:45:41.480Z,2752
2018-04-11T08:46:21.944Z,2752
2018-04-11T08:47:02.443Z,2756
2018-04-11T08:47:42.904Z,2752
2018-04-11T08:48:23.389Z,2756
2018-04-11T08:49:04.078Z,2760
2018-04-11T08:49:44.539Z,2760
2018-04-11T08:50:24.999Z,2760
2018-04-11T08:51:05.490Z,2760
2018-04-11T08:51:45.958Z,2760
2018-04-11T08:52:26.478Z,2760
2018-04-11T08:53:06.985Z,2764
2018-04-11T08:53:47.443Z,2760
2018-04-11T08:54:27.910Z,2764
2018-04-11T08:55:08.444Z,2760
2018-04-11T08:55:48.937Z,2756
2018-04-11T08:56:29.442Z,2752
2018-04-11T08:57:09.964Z,2752
2018-04-11T08:57:50.420Z,2752
2018-04-11T08:58:30.916Z,2748
2018-04-11T08:59:11.370Z,2744
2018-04-11T08:59:52.001Z,2744
2018-04-11T09:00:32.491Z,2744
2018-04-11T09:01:12.993Z,2744
2018-04-11T09:01:53.449Z,2744
2018-04-11T09:02:33.929Z,2744
2018-04-11T09:03:14.473Z,2744
2018-04-11T09:03:54.991Z,2740
2018-04-11T09:04:36.080Z,2744
2018-04-11T09:05:16.540Z,2740
2018-04-11T09:05:57.049Z,2740
2018-04-11T09:06:37.557Z,2740
2018-04-11T09:07:18.064Z,2736
2018-04-11T09:07:58.537Z,2732
2018-04-11T09:08:39.036Z,2728
2018-04-11T09:09:19.541Z,2720
2018-04-11T09:10:00.207Z,2716
2018-04-11T09:10:40.582Z,2712
2018-04-11T09:11:21.057Z,2704
2018-04-11T09:12:01.531Z,2696
2018-04-11T09:12:42.164Z,2684
2018-04-11T09:13:22.535Z,2668
2018-04-11T09:14:03.040Z,2652
2018-04-11T09:14:43.515Z,2640
2018-04-11T09:15:24.332Z,2624
2018-04-11T09:16:04.797Z,2608
2018-04-11T09:16:45.310Z,2592
2018-04-11T09:17:25.799Z,2572
2018-04-11T09:18:06.351Z,2564
2018-04-11T09:18:46.796Z,2548
2018-04-11T09:19:27.294Z,2536
2018-04-11T09:20:07.798Z,2524
2018-04-11T09:20:48.264Z,2512
2018-04-11T09:21:28.775Z,2508
2018-04-11T09:22:09.287Z,2496
2018-04-11T09:22:49.795Z,2484
2018-04-11T09:23:30.271Z,2472
2018-04-11T09:24:10.869Z,2468
2018-04-11T09:24:51.338Z,2460
2018-04-11T09:25:31.868Z,2452
2018-04-11T09:26:12.397Z,2444
2018-04-11T09:26:52.884Z,2440
2018-04-11T09:27:33.326Z,2432
2018-04-11T09:28:13.882Z,2428
2018-04-11T09:28:54.447Z,2428
2018-04-11T09:29:34.957Z,2428
2018-04-11T09:30:15.484Z,2424
2018-04-11T09:30:56.184Z,2424
2018-04-11T09:31:36.748Z,2420
2018-04-11T09:32:17.104Z,2420
2018-04-11T09:32:57.650Z,2420
2018-04-11T09:33:38.122Z,2420